Time;durP1;ratioP1;P1;durP2;ratioP2;P2;SDS_P1;SDS_P2;PMS_P1;PMS_P2;Temp;Humidity;BMP_temperature;BMP_pressure;BME280_temperature;BME280_humidity;BME280_pressure;Samples;Min_cycle;Max_cycle;Signal;HPM_P1;HPM_P2
2022/03/05 00:00:30;;;;;;;5.50;3.47;;;2.70;99.90;;;;;;5066389;28;20587;-67
2022/03/05 00:02:57;;;;;;;7.17;4.30;;;2.60;99.90;;;;;;5055662;28;20256;-66
2022/03/05 00:05:24;;;;;;;8.73;4.60;;;2.60;99.90;;;;;;5057392;28;20206;-67
2022/03/05 00:07:51;;;;;;;14.80;5.13;;;2.60;99.90;;;;;;5051157;28;20698;-67
2022/03/05 00:10:19;;;;;;;8.47;4.33;;;2.60;99.90;;;;;;5047234;28;20661;-66
2022/03/05 00:12:46;;;;;;;6.87;3.97;;;2.60;99.90;;;;;;5047988;28;20312;-66
2022/03/05 00:15:14;;;;;;;9.40;4.70;;;2.60;99.90;;;;;;5052371;28;20216;-68
2022/03/05 00:17:41;;;;;;;8.60;4.57;;;2.60;99.90;;;;;;5045401;28;20216;-66
2022/03/05 00:20:09;;;;;;;8.47;4.60;;;2.60;99.90;;;;;;5052632;28;20302;-67
2022/03/05 00:22:36;;;;;;;8.30;3.97;;;2.60;99.90;;;;;;5052982;28;20301;-65
2022/03/05 00:25:04;;;;;;;5.57;3.67;;;2.60;99.90;;;;;;5052600;28;20299;-67
2022/03/05 00:27:31;;;;;;;7.43;3.27;;;2.60;99.90;;;;;;5052269;28;20271;-66
2022/03/05 00:29:57;;;;;;;5.87;3.33;;;2.60;99.90;;;;;;5052137;28;20221;-67
2022/03/05 00:32:26;;;;;;;6.67;3.47;;;2.50;99.90;;;;;;5062892;28;20287;-67
2022/03/05 00:34:53;;;;;;;4.07;3.00;;;2.60;99.90;;;;;;5042017;28;20297;-66
2022/03/05 00:37:20;;;;;;;4.20;2.43;;;2.50;99.70;;;;;;5064237;28;20225;-67
2022/03/05 00:39:47;;;;;;;4.57;2.77;;;2.60;99.30;;;;;;5070023;28;20207;-67
2022/03/05 00:42:14;;;;;;;3.00;2.27;;;2.60;98.60;;;;;;5065509;28;20210;-66
2022/03/05 00:44:41;;;;;;;4.40;2.40;;;2.60;97.90;;;;;;5059313;28;20203;-67
2022/03/05 00:47:08;;;;;;;4.50;2.77;;;2.60;97.50;;;;;;5048468;28;20294;-66
2022/03/05 00:49:38;;;;;;;5.23;3.00;;;2.60;97.00;;;;;;5069087;28;20252;-65
2022/03/05 00:52:05;;;;;;;3.57;2.43;;;2.60;96.80;;;;;;5070698;28;20530;-67
2022/03/05 00:54:32;;;;;;;3.33;2.50;;;2.60;96.70;;;;;;5070129;28;20348;-66
2022/03/05 00:56:58;;;;;;;5.83;3.00;;;2.70;96.50;;;;;;5065731;28;20206;-65
2022/03/05 00:59:25;;;;;;;3.80;2.50;;;2.70;96.30;;;;;;5059586;28;20205;-66
2022/03/05 01:01:52;;;;;;;4.03;2.57;;;2.70;96.10;;;;;;5062662;28;20576;-66
2022/03/05 01:04:19;;;;;;;3.73;2.63;;;2.70;95.90;;;;;;5058631;28;20292;-66
2022/03/05 01:06:47;;;;;;;4.67;2.90;;;2.70;95.90;;;;;;5061147;28;20627;-66
2022/03/05 01:09:14;;;;;;;5.37;2.83;;;2.70;95.90;;;;;;5058732;28;20705;-66
2022/03/05 01:11:41;;;;;;;4.33;3.07;;;2.70;95.70;;;;;;5041772;28;20235;-66
2022/03/05 01:14:08;;;;;;;4.57;2.30;;;2.70;95.70;;;;;;5050708;28;20708;-67
2022/03/05 01:16:35;;;;;;;3.90;2.77;;;2.90;95.70;;;;;;5049513;28;20205;-66
2022/03/05 01:19:02;;;;;;;4.43;2.30;;;2.70;95.30;;;;;;5048626;28;20662;-67
2022/03/05 01:21:29;;;;;;;2.80;2.13;;;2.70;95.00;;;;;;5053516;28;20229;-67
2022/03/05 01:23:57;;;;;;;2.53;2.33;;;2.70;94.60;;;;;;5067378;28;20206;-66
2022/03/05 01:26:24;;;;;;;3.57;2.17;;;2.70;94.50;;;;;;5062774;28;20532;-66
2022/03/05 01:28:51;;;;;;;3.93;2.20;;;2.70;94.40;;;;;;5074186;28;20205;-66
2022/03/05 01:31:18;;;;;;;4.07;2.63;;;2.70;94.40;;;;;;5062203;28;20280;-66
2022/03/05 01:33:44;;;;;;;3.03;2.47;;;2.70;94.30;;;;;;5060632;28;20208;-66
2022/03/05 01:36:11;;;;;;;3.37;2.40;;;2.70;94.30;;;;;;5060147;28;20657;-66
2022/03/05 01:38:38;;;;;;;3.97;2.50;;;2.70;94.20;;;;;;5053960;28;20293;-66
2022/03/05 01:41:07;;;;;;;3.00;2.00;;;2.70;94.10;;;;;;5055399;28;20224;-66
2022/03/05 01:43:34;;;;;;;3.80;2.23;;;2.70;94.50;;;;;;5053180;28;20212;-64
2022/03/05 01:46:00;;;;;;;4.60;2.27;;;2.70;94.10;;;;;;5052151;28;20241;-65
2022/03/05 01:48:27;;;;;;;3.80;2.40;;;2.70;94.10;;;;;;5054567;28;20202;-66
2022/03/05 01:50:54;;;;;;;3.87;2.20;;;2.70;94.20;;;;;;5045202;28;20309;-66
2022/03/05 01:53:21;;;;;;;2.87;2.20;;;2.70;94.10;;;;;;5040224;28;20268;-65
2022/03/05 01:55:48;;;;;;;3.60;2.00;;;2.70;94.10;;;;;;5041396;28;20288;-65
2022/03/05 01:58:16;;;;;;;5.43;2.33;;;2.70;94.00;;;;;;5063879;28;20209;-66
2022/03/05 02:00:43;;;;;;;3.43;2.40;;;2.70;94.10;;;;;;5062592;28;20641;-63
2022/03/05 02:03:10;;;;;;;3.43;2.00;;;2.70;94.10;;;;;;5055673;28;20297;-63
2022/03/05 02:05:37;;;;;;;2.63;1.70;;;2.70;93.90;;;;;;5048636;28;20587;-63
2022/03/05 02:08:05;;;;;;;4.70;2.40;;;2.70;93.90;;;;;;5069983;28;20289;-61
2022/03/05 02:10:32;;;;;;;3.83;2.13;;;2.70;94.00;;;;;;5048579;28;20710;-63
2022/03/05 02:12:59;;;;;;;4.47;2.20;;;2.80;93.90;;;;;;5051326;28;20220;-62
2022/03/05 02:15:27;;;;;;;2.80;2.13;;;2.70;93.90;;;;;;5055498;28;20210;-63
2022/03/05 02:17:54;;;;;;;2.67;2.03;;;2.70;93.70;;;;;;5055654;28;20222;-63
2022/03/05 02:20:21;;;;;;;3.33;2.37;;;2.60;94.10;;;;;;5053414;28;20713;-63
2022/03/05 02:22:49;;;;;;;4.27;1.93;;;2.60;93.90;;;;;;5067827;28;20669;-63
2022/03/05 02:25:16;;;;;;;4.87;1.87;;;2.60;93.90;;;;;;5047628;28;20677;-63
2022/03/05 02:27:44;;;;;;;3.57;2.07;;;2.60;93.80;;;;;;5045804;28;20602;-62
2022/03/05 02:30:12;;;;;;;3.17;2.40;;;2.60;93.80;;;;;;5067741;28;20217;-62
2022/03/05 02:32:39;;;;;;;3.23;1.90;;;2.60;93.90;;;;;;5041087;28;20662;-63
2022/03/05 02:35:06;;;;;;;3.07;2.33;;;2.60;94.00;;;;;;5050422;28;20221;-63
2022/03/05 02:37:33;;;;;;;4.80;2.53;;;2.60;93.90;;;;;;5057225;28;20584;-63
2022/03/05 02:40:01;;;;;;;2.60;2.20;;;2.70;94.00;;;;;;5064974;28;20298;-62
2022/03/05 02:42:28;;;;;;;3.30;2.30;;;2.60;93.90;;;;;;5053093;28;20259;-61
2022/03/05 02:44:55;;;;;;;2.63;2.20;;;2.60;94.20;;;;;;5051314;28;20254;-63
2022/03/05 02:47:22;;;;;;;4.73;2.37;;;2.60;94.00;;;;;;5060131;28;20211;-64
2022/03/05 02:49:49;;;;;;;3.93;2.37;;;2.70;94.10;;;;;;5075277;28;20697;-63
2022/03/05 02:52:16;;;;;;;5.10;2.33;;;2.70;94.10;;;;;;5061939;28;20205;-63
2022/03/05 02:54:42;;;;;;;3.63;2.40;;;2.70;94.10;;;;;;5055434;28;20272;-62
2022/03/05 02:57:11;;;;;;;3.17;2.10;;;2.70;94.00;;;;;;5045226;28;20214;-62
2022/03/05 02:59:37;;;;;;;3.87;2.17;;;2.70;94.00;;;;;;5051049;28;20206;-62
2022/03/05 03:02:04;;;;;;;3.13;2.40;;;2.70;94.00;;;;;;5055436;28;20206;-63
2022/03/05 03:04:31;;;;;;;3.57;2.47;;;2.70;94.00;;;;;;5053791;28;20657;-64
2022/03/05 03:06:58;;;;;;;4.50;2.40;;;2.70;94.10;;;;;;5043846;28;20206;-63
2022/03/05 03:09:25;;;;;;;4.73;2.37;;;2.70;94.10;;;;;;5067959;28;20205;-62
2022/03/05 03:11:52;;;;;;;4.33;2.50;;;2.70;94.10;;;;;;5054930;28;20222;-63
2022/03/05 03:14:20;;;;;;;3.20;2.10;;;2.70;94.10;;;;;;5054814;28;20213;-62
2022/03/05 03:16:47;;;;;;;4.73;2.30;;;2.70;94.20;;;;;;5050383;28;20284;-63
2022/03/05 03:19:14;;;;;;;3.53;2.17;;;2.70;94.20;;;;;;5053855;28;20249;-63
2022/03/05 03:21:41;;;;;;;4.53;2.53;;;2.70;94.30;;;;;;5058064;28;20221;-63
2022/03/05 03:24:08;;;;;;;2.47;2.27;;;2.70;94.30;;;;;;5053269;28;20209;-64
2022/03/05 03:26:34;;;;;;;2.10;1.90;;;2.70;94.40;;;;;;5054308;28;20209;-63
2022/03/05 03:29:01;;;;;;;3.50;2.20;;;2.60;94.40;;;;;;5057788;28;20198;-64
2022/03/05 03:31:30;;;;;;;4.10;2.60;;;2.60;94.40;;;;;;5064344;28;20222;-63
2022/03/05 03:33:56;;;;;;;2.43;2.20;;;2.60;94.40;;;;;;5049260;28;20201;-62
2022/03/05 03:36:23;;;;;;;3.07;2.20;;;2.70;94.60;;;;;;5061570;28;20217;-62
2022/03/05 03:38:50;;;;;;;2.97;2.23;;;2.60;94.40;;;;;;5057872;28;20240;-63
2022/03/05 03:41:17;;;;;;;3.67;2.60;;;2.60;94.40;;;;;;5054494;28;20202;-62
2022/03/05 03:43:44;;;;;;;2.83;2.03;;;2.60;94.50;;;;;;5050778;28;20240;-63
2022/03/05 03:46:11;;;;;;;2.67;2.07;;;2.60;94.50;;;;;;5066994;28;20333;-63
2022/03/05 03:48:40;;;;;;;3.47;2.47;;;2.60;94.70;;;;;;5054665;28;20214;-64
2022/03/05 03:51:07;;;;;;;2.70;2.40;;;2.60;94.80;;;;;;5054203;28;20236;-63
2022/03/05 03:53:34;;;;;;;3.80;2.40;;;2.50;94.90;;;;;;5043115;28;20210;-63
2022/03/05 03:56:01;;;;;;;3.13;2.23;;;2.40;94.80;;;;;;5052853;28;20673;-63
2022/03/05 03:58:28;;;;;;;4.37;2.53;;;2.40;94.90;;;;;;5056139;28;20641;-63
2022/03/05 04:00:55;;;;;;;3.90;2.40;;;2.40;95.30;;;;;;5041714;28;20203;-63
2022/03/05 04:03:22;;;;;;;2.70;2.40;;;2.40;95.30;;;;;;5053846;28;20232;-66
2022/03/05 04:05:50;;;;;;;3.33;2.27;;;2.40;95.50;;;;;;5054376;28;20694;-67
2022/03/05 04:11:01;;;;;;;4.50;2.03;;;2.30;95.50;;;;;;5053895;28;20307;-62
2022/03/05 04:13:28;;;;;;;4.87;2.30;;;2.30;96.00;;;;;;5049688;28;20214;-63
2022/03/05 04:15:56;;;;;;;2.83;2.30;;;2.30;95.80;;;;;;5051485;28;20217;-62
2022/03/05 04:18:22;;;;;;;6.20;2.70;;;2.30;95.90;;;;;;5051082;28;20206;-62
2022/03/05 04:20:51;;;;;;;2.63;2.07;;;2.30;96.00;;;;;;5053544;28;20230;-63
2022/03/05 04:23:18;;;;;;;3.10;2.40;;;2.30;96.00;;;;;;5058056;28;20212;-62
2022/03/05 04:25:44;;;;;;;4.00;2.00;;;2.30;96.00;;;;;;5051373;28;20255;-63
2022/03/05 04:28:11;;;;;;;4.30;2.43;;;2.20;96.10;;;;;;5058477;28;20210;-64
2022/03/05 04:30:38;;;;;;;2.60;2.27;;;2.20;96.20;;;;;;5052368;28;20223;-63
2022/03/05 04:33:05;;;;;;;2.57;1.90;;;2.20;96.30;;;;;;5035762;28;20301;-63
2022/03/05 04:35:32;;;;;;;2.27;1.67;;;2.20;96.40;;;;;;5047844;28;20212;-62
2022/03/05 04:38:00;;;;;;;3.77;2.40;;;2.20;96.50;;;;;;5041866;28;20296;-62
2022/03/05 04:40:27;;;;;;;4.00;2.17;;;2.10;96.50;;;;;;5053804;28;20293;-63
2022/03/05 04:42:54;;;;;;;3.13;2.00;;;2.10;96.50;;;;;;5048837;28;20206;-64
2022/03/05 04:45:21;;;;;;;3.13;2.40;;;2.10;96.60;;;;;;5045464;28;20267;-63
2022/03/05 04:47:48;;;;;;;2.70;2.27;;;2.10;96.60;;;;;;5072018;28;20700;-63
2022/03/05 04:50:15;;;;;;;4.30;2.73;;;2.20;96.70;;;;;;5073868;28;20240;-63
2022/03/05 04:52:42;;;;;;;2.60;2.30;;;2.20;96.80;;;;;;5064226;28;20252;-62
2022/03/05 04:55:11;;;;;;;3.60;2.33;;;2.10;96.80;;;;;;5056002;28;20325;-63
2022/03/05 04:57:37;;;;;;;2.90;2.13;;;2.10;96.90;;;;;;5061148;28;20248;-63
2022/03/05 05:00:06;;;;;;;3.23;2.33;;;2.10;96.90;;;;;;5045085;28;20210;-63
2022/03/05 05:02:33;;;;;;;3.63;2.33;;;2.10;96.90;;;;;;5057056;28;20222;-62
2022/03/05 05:05:00;;;;;;;3.37;2.23;;;2.10;96.90;;;;;;5057025;28;20210;-61
2022/03/05 05:07:27;;;;;;;3.47;2.30;;;2.10;96.90;;;;;;5056457;28;20270;-62
2022/03/05 05:09:54;;;;;;;3.43;2.30;;;2.10;97.00;;;;;;5055642;28;20292;-62
2022/03/05 05:12:22;;;;;;;4.53;2.30;;;2.00;97.10;;;;;;5052036;28;20277;-63
2022/03/05 05:14:49;;;;;;;5.07;2.40;;;2.00;97.20;;;;;;5056910;28;20206;-63
2022/03/05 05:17:17;;;;;;;2.17;1.93;;;2.00;97.10;;;;;;5057302;28;20300;-63
2022/03/05 05:19:44;;;;;;;2.43;2.10;;;2.00;97.10;;;;;;5056983;28;20213;-65
2022/03/05 05:22:11;;;;;;;3.30;2.20;;;2.00;97.30;;;;;;5059158;28;20288;-64
2022/03/05 05:24:39;;;;;;;4.10;2.50;;;2.00;97.40;;;;;;5045698;28;20264;-63
2022/03/05 05:27:06;;;;;;;3.67;2.80;;;2.00;97.80;;;;;;5060612;28;20209;-62
2022/03/05 05:29:34;;;;;;;2.97;2.30;;;2.00;97.50;;;;;;5064796;28;20232;-62
2022/03/05 05:32:01;;;;;;;4.47;2.63;;;1.90;97.40;;;;;;5046425;28;20233;-62
2022/03/05 05:34:27;;;;;;;4.03;2.50;;;2.00;97.50;;;;;;5053480;28;20298;-63
2022/03/05 05:36:54;;;;;;;4.80;2.77;;;1.90;97.40;;;;;;5068958;28;20206;-63
2022/03/05 05:39:21;;;;;;;3.47;2.70;;;1.90;97.50;;;;;;5052433;28;20210;-63
2022/03/05 05:41:48;;;;;;;4.00;2.17;;;1.90;97.50;;;;;;5046080;28;20273;-63
2022/03/05 05:44:15;;;;;;;4.43;2.60;;;1.90;97.60;;;;;;5056525;28;20228;-62
2022/03/05 05:46:43;;;;;;;3.00;2.40;;;1.80;97.90;;;;;;5056880;28;20342;-63
2022/03/05 05:49:10;;;;;;;3.93;2.47;;;1.90;98.10;;;;;;5057188;28;20702;-63
2022/03/05 05:51:37;;;;;;;4.17;2.63;;;1.90;98.20;;;;;;5064638;28;20240;-64
2022/03/05 05:54:04;;;;;;;3.73;2.53;;;2.00;98.40;;;;;;5055892;28;20214;-63
2022/03/05 05:56:31;;;;;;;4.33;2.87;;;1.90;98.50;;;;;;5057182;28;20297;-63
2022/03/05 05:58:58;;;;;;;3.40;2.53;;;2.00;98.30;;;;;;5056687;28;20241;-63
2022/03/05 06:01:25;;;;;;;4.07;2.57;;;1.90;98.30;;;;;;5049559;28;20234;-63
2022/03/05 06:03:54;;;;;;;5.30;3.07;;;1.90;98.50;;;;;;5045027;28;20220;-63
2022/03/05 06:06:22;;;;;;;4.90;2.63;;;1.90;98.90;;;;;;5053278;28;20241;-63
2022/03/05 06:08:49;;;;;;;4.87;2.70;;;2.00;98.70;;;;;;5053893;28;20760;-64
2022/03/05 06:11:16;;;;;;;3.30;2.67;;;1.90;98.80;;;;;;5061873;28;20223;-63
2022/03/05 06:13:43;;;;;;;3.77;2.70;;;2.00;99.00;;;;;;5052102;28;20738;-63
2022/03/05 06:16:10;;;;;;;3.83;2.90;;;2.00;99.00;;;;;;5059713;28;20206;-63
2022/03/05 06:18:37;;;;;;;4.03;2.33;;;2.00;99.00;;;;;;5039820;28;20266;-62
2022/03/05 06:21:06;;;;;;;3.67;2.80;;;2.00;99.10;;;;;;5061621;28;20221;-64
2022/03/05 06:23:33;;;;;;;4.57;2.60;;;2.10;99.10;;;;;;5058308;28;20202;-64
2022/03/05 06:26:00;;;;;;;4.90;2.77;;;2.10;99.00;;;;;;5071978;28;20244;-63
2022/03/05 06:28:27;;;;;;;3.43;2.80;;;2.20;99.10;;;;;;5058221;28;20206;-63
2022/03/05 06:30:54;;;;;;;4.47;3.23;;;2.10;99.10;;;;;;5060420;28;20237;-67
2022/03/05 06:33:21;;;;;;;3.93;2.70;;;2.10;99.20;;;;;;5051209;28;20209;-67
2022/03/05 06:35:48;;;;;;;4.77;2.97;;;2.20;99.20;;;;;;5052049;28;20217;-67
2022/03/05 06:38:16;;;;;;;4.30;2.97;;;2.20;99.20;;;;;;5047477;28;20329;-67
2022/03/05 06:40:43;;;;;;;4.30;2.97;;;2.20;99.20;;;;;;5054666;28;20241;-68
2022/03/05 06:43:10;;;;;;;5.47;3.27;;;2.50;99.30;;;;;;5054669;28;20224;-68
2022/03/05 06:45:37;;;;;;;3.17;2.50;;;2.40;99.30;;;;;;5044136;28;20636;-68
2022/03/05 06:48:04;;;;;;;4.23;3.20;;;2.30;99.30;;;;;;5060429;28;20213;-67
2022/03/05 06:50:32;;;;;;;6.07;2.80;;;2.30;99.30;;;;;;5053530;28;20221;-65
2022/03/05 06:52:58;;;;;;;3.97;2.80;;;2.30;99.30;;;;;;5052494;28;20316;-66
2022/03/05 06:55:27;;;;;;;5.80;3.50;;;2.40;99.30;;;;;;5055724;28;20218;-69
2022/03/05 06:57:54;;;;;;;4.70;2.87;;;2.40;99.20;;;;;;5059519;28;20620;-68
2022/03/05 07:00:21;;;;;;;6.00;2.80;;;2.40;99.10;;;;;;5044823;28;20297;-68
2022/03/05 07:02:48;;;;;;;11.10;3.57;;;2.50;99.10;;;;;;5055887;28;20663;-68
2022/03/05 07:05:15;;;;;;;7.27;3.03;;;2.50;99.00;;;;;;5044745;28;20205;-68
2022/03/05 07:07:43;;;;;;;5.17;3.13;;;2.50;99.00;;;;;;5051935;28;20297;-69
2022/03/05 07:10:10;;;;;;;4.83;3.00;;;2.50;99.00;;;;;;5048072;28;20234;-69
2022/03/05 07:12:39;;;;;;;3.20;2.77;;;2.50;99.00;;;;;;5047496;28;20218;-68
2022/03/05 07:15:07;;;;;;;4.27;3.07;;;2.50;99.00;;;;;;5054634;28;20320;-68
2022/03/05 07:17:34;;;;;;;4.60;3.23;;;2.50;98.90;;;;;;5051774;28;20289;-69
2022/03/05 07:20:01;;;;;;;4.87;2.87;;;2.60;99.00;;;;;;5052834;28;20639;-69
2022/03/05 07:22:27;;;;;;;4.60;2.83;;;2.60;98.90;;;;;;5051643;28;20206;-68
2022/03/05 07:24:54;;;;;;;6.00;2.93;;;2.60;98.90;;;;;;5053991;28;20289;-67
2022/03/05 07:27:21;;;;;;;4.80;3.07;;;2.70;98.90;;;;;;5054682;28;20347;-68
2022/03/05 07:29:49;;;;;;;4.00;2.80;;;2.70;98.90;;;;;;5054935;28;20280;-65
2022/03/05 07:32:16;;;;;;;4.63;2.73;;;2.80;98.80;;;;;;5046656;28;20219;-65
2022/03/05 07:34:43;;;;;;;3.90;2.83;;;2.80;98.50;;;;;;5066663;28;20287;-64
2022/03/05 07:37:10;;;;;;;4.00;2.80;;;2.90;98.40;;;;;;5048385;28;20296;-65
2022/03/05 07:39:37;;;;;;;3.90;3.10;;;2.80;98.30;;;;;;5057931;28;20224;-65
2022/03/05 07:42:05;;;;;;;4.07;2.77;;;3.00;98.30;;;;;;5054231;28;20296;-67
2022/03/05 07:44:32;;;;;;;4.60;2.67;;;2.90;98.00;;;;;;5054528;28;20209;-68
2022/03/05 07:47:00;;;;;;;4.43;3.20;;;2.90;97.70;;;;;;5059053;28;20206;-66
2022/03/05 07:49:27;;;;;;;4.70;2.63;;;2.90;97.70;;;;;;5052188;28;20205;-66
2022/03/05 07:51:56;;;;;;;4.87;3.33;;;2.80;97.80;;;;;;5055057;28;20758;-66
2022/03/05 07:54:23;;;;;;;4.00;2.90;;;2.90;97.70;;;;;;5066199;28;20209;-68
2022/03/05 07:56:52;;;;;;;4.07;3.03;;;2.80;97.30;;;;;;5072979;28;20220;-67
2022/03/05 07:59:20;;;;;;;5.03;3.57;;;2.80;97.30;;;;;;5054936;28;20244;-66
2022/03/05 08:01:47;;;;;;;5.03;3.10;;;2.80;97.60;;;;;;5055906;28;20199;-67
2022/03/05 08:04:16;;;;;;;5.30;3.33;;;2.90;97.70;;;;;;5071274;28;20262;-67
2022/03/05 08:06:43;;;;;;;5.40;3.60;;;3.00;97.70;;;;;;5041933;28;20207;-67
2022/03/05 08:09:10;;;;;;;4.80;2.90;;;3.20;97.30;;;;;;5048393;28;20228;-68
2022/03/05 08:11:37;;;;;;;4.73;3.47;;;3.30;97.20;;;;;;5072821;28;20308;-66
2022/03/05 08:14:04;;;;;;;5.70;3.30;;;3.40;96.90;;;;;;5052633;28;20233;-67
2022/03/05 08:16:32;;;;;;;4.70;3.00;;;3.50;96.60;;;;;;5042486;28;20249;-67
2022/03/05 08:18:59;;;;;;;5.00;3.17;;;3.70;96.50;;;;;;5062047;28;20297;-66
2022/03/05 08:21:28;;;;;;;7.50;3.40;;;3.70;96.10;;;;;;5050227;28;20241;-68
2022/03/05 08:23:55;;;;;;;4.80;2.77;;;3.80;96.00;;;;;;5067766;28;20205;-66
2022/03/05 08:26:21;;;;;;;3.57;2.87;;;3.90;95.50;;;;;;5051548;28;20253;-66
2022/03/05 08:28:49;;;;;;;5.13;2.97;;;4.00;95.40;;;;;;5051474;28;20201;-66
2022/03/05 08:31:16;;;;;;;8.77;3.07;;;4.20;94.80;;;;;;5061999;28;20651;-65
2022/03/05 08:33:43;;;;;;;4.93;2.97;;;4.30;94.30;;;;;;5049022;28;20627;-68
2022/03/05 08:36:10;;;;;;;5.80;3.10;;;4.40;94.20;;;;;;5043343;28;20206;-67
2022/03/05 08:38:40;;;;;;;4.20;2.90;;;4.50;93.30;;;;;;5046108;28;20206;-67
2022/03/05 08:41:08;;;;;;;4.67;3.10;;;4.50;93.00;;;;;;5048789;28;20217;-66
2022/03/05 08:43:36;;;;;;;5.03;2.90;;;4.50;92.50;;;;;;5041043;28;20203;-66
2022/03/05 08:46:05;;;;;;;3.97;2.90;;;4.60;91.90;;;;;;5050521;28;20234;-67
2022/03/05 08:48:32;;;;;;;5.67;3.10;;;4.70;91.90;;;;;;5056115;28;20202;-66
2022/03/05 08:50:59;;;;;;;3.50;2.63;;;4.80;91.80;;;;;;5051112;28;20241;-66
2022/03/05 08:53:26;;;;;;;4.37;3.10;;;4.90;91.80;;;;;;5048635;28;20219;-66
2022/03/05 08:55:54;;;;;;;4.60;3.40;;;5.10;91.30;;;;;;5049807;28;20314;-66
2022/03/05 08:58:22;;;;;;;3.63;2.97;;;5.20;90.40;;;;;;5052159;28;20245;-66
2022/03/05 09:00:50;;;;;;;5.30;3.50;;;5.20;89.70;;;;;;5054036;28;20244;-66
2022/03/05 09:03:17;;;;;;;4.57;2.70;;;5.10;89.40;;;;;;5053282;28;20754;-66
2022/03/05 09:05:45;;;;;;;5.07;2.43;;;5.20;89.10;;;;;;5052532;28;20213;-66
2022/03/05 09:08:12;;;;;;;5.77;3.00;;;5.10;88.10;;;;;;5048666;28;20214;-67
2022/03/05 09:10:39;;;;;;;4.07;2.97;;;4.90;88.30;;;;;;5040983;28;20639;-67
2022/03/05 09:13:08;;;;;;;3.70;2.87;;;4.90;89.10;;;;;;5035230;28;20228;-66
2022/03/05 09:15:35;;;;;;;4.87;3.50;;;4.80;89.30;;;;;;5052154;28;20248;-66
2022/03/05 09:18:02;;;;;;;4.63;2.90;;;4.80;88.90;;;;;;5049077;28;20264;-68
2022/03/05 09:20:29;;;;;;;4.87;2.97;;;4.70;88.90;;;;;;5047226;28;20750;-67
2022/03/05 09:22:56;;;;;;;5.70;3.43;;;4.70;88.60;;;;;;5050388;28;20270;-67
2022/03/05 09:25:23;;;;;;;5.10;2.57;;;4.60;88.20;;;;;;5039559;28;20210;-66
2022/03/05 09:27:49;;;;;;;3.70;2.90;;;4.60;87.90;;;;;;5041304;28;20216;-66
2022/03/05 09:30:18;;;;;;;4.50;3.07;;;4.50;87.10;;;;;;5064710;28;20205;-66
2022/03/05 09:32:45;;;;;;;6.23;3.40;;;4.40;87.00;;;;;;5039605;28;20778;-67
2022/03/05 09:35:12;;;;;;;4.60;3.00;;;4.40;86.60;;;;;;5052674;28;20210;-67
2022/03/05 09:37:39;;;;;;;3.50;2.47;;;4.40;86.20;;;;;;5047147;28;20241;-66
2022/03/05 09:40:08;;;;;;;3.17;2.60;;;4.30;86.20;;;;;;5046768;28;20206;-68
2022/03/05 09:42:35;;;;;;;3.93;3.17;;;4.30;86.30;;;;;;5056040;28;20238;-65
2022/03/05 09:45:04;;;;;;;4.10;3.20;;;4.30;86.30;;;;;;5055446;28;20329;-67
2022/03/05 09:47:35;;;;;;;4.23;3.00;;;4.20;86.40;;;;;;5057760;28;20220;-67
2022/03/05 09:50:05;;;;;;;2.87;2.40;;;4.20;86.80;;;;;;5045294;28;20233;-66
2022/03/05 09:52:32;;;;;;;2.83;2.30;;;4.20;86.80;;;;;;5048270;28;20308;-67
2022/03/05 09:54:59;;;;;;;2.40;2.20;;;4.10;86.10;;;;;;5058267;28;20234;-66
2022/03/05 09:57:26;;;;;;;4.77;3.13;;;4.10;85.00;;;;;;5056704;28;20212;-68
2022/03/05 09:59:53;;;;;;;3.07;2.20;;;4.10;84.30;;;;;;5071468;28;20264;-68
2022/03/05 10:02:20;;;;;;;3.83;2.60;;;4.10;83.60;;;;;;5053999;28;20202;-67
2022/03/05 10:04:49;;;;;;;3.63;2.70;;;4.00;83.90;;;;;;5059043;28;20206;-67
2022/03/05 10:07:17;;;;;;;5.03;3.03;;;3.90;84.00;;;;;;5054102;28;20214;-66
2022/03/05 10:09:46;;;;;;;3.57;2.30;;;3.90;84.80;;;;;;5057713;28;20217;-68
2022/03/05 10:12:39;;;;;;;3.33;2.07;;;3.90;84.80;;;;;;5054537;28;20241;-67
2022/03/05 10:15:11;;;;;;;3.57;2.33;;;3.80;84.10;;;;;;5055244;28;20205;-68
2022/03/05 10:17:49;;;;;;;4.07;1.67;;;3.80;82.10;;;;;;5047498;28;20200;-67
2022/03/05 10:20:18;;;;;;;3.30;2.00;;;3.80;80.50;;;;;;5066080;28;20218;-67
2022/03/05 10:23:04;;;;;;;2.77;2.03;;;3.70;79.60;;;;;;5053218;28;20198;-67
2022/03/05 10:25:38;;;;;;;2.33;1.70;;;3.80;79.60;;;;;;5054118;28;20204;-67
2022/03/05 10:28:08;;;;;;;1.97;1.60;;;3.80;79.80;;;;;;5068914;28;20288;-64
2022/03/05 10:30:37;;;;;;;3.13;1.80;;;3.80;79.80;;;;;;5064403;28;20212;-64
2022/03/05 10:33:06;;;;;;;3.83;1.80;;;3.80;79.80;;;;;;5058038;28;20272;-66
2022/03/05 10:35:34;;;;;;;2.23;1.63;;;3.70;79.70;;;;;;5054967;28;20197;-67
2022/03/05 10:38:01;;;;;;;4.60;1.83;;;3.70;79.70;;;;;;5065742;28;20207;-66
2022/03/05 10:40:29;;;;;;;2.67;1.90;;;3.70;79.70;;;;;;5060633;28;20296;-67
2022/03/05 10:43:01;;;;;;;4.93;3.17;;;3.60;79.90;;;;;;5057241;28;20313;-66
2022/03/05 10:45:29;;;;;;;6.50;2.30;;;3.60;79.70;;;;;;5061731;28;20233;-64
2022/03/05 10:47:58;;;;;;;2.17;1.70;;;3.60;79.80;;;;;;5060603;28;20321;-70
2022/03/05 10:50:28;;;;;;;6.23;1.80;;;3.60;79.60;;;;;;5056088;28;20209;-65
2022/03/05 10:53:00;;;;;;;2.23;1.60;;;3.60;79.60;;;;;;5055104;28;20294;-65
2022/03/05 10:55:28;;;;;;;2.50;1.90;;;3.70;79.10;;;;;;5055517;28;20240;-66
2022/03/05 10:58:01;;;;;;;2.97;1.93;;;3.60;78.40;;;;;;5055248;28;20260;-65
2022/03/05 11:00:29;;;;;;;3.03;1.83;;;3.60;77.60;;;;;;5060216;28;20226;-68
2022/03/05 11:03:02;;;;;;;2.03;1.83;;;3.60;77.50;;;;;;5055087;28;20216;-66
2022/03/05 11:05:30;;;;;;;2.90;1.60;;;3.60;76.30;;;;;;5055770;28;20206;-67
2022/03/05 11:08:00;;;;;;;1.70;1.50;;;3.50;76.20;;;;;;5065424;28;20211;-66
2022/03/05 11:10:29;;;;;;;1.70;1.60;;;3.50;76.20;;;;;;5064824;28;20293;-67
2022/03/05 11:12:59;;;;;;;2.17;1.70;;;3.50;76.70;;;;;;5053318;28;20230;-69
2022/03/05 11:15:27;;;;;;;4.37;2.27;;;3.50;76.20;;;;;;5056109;28;20208;-69
2022/03/05 11:17:55;;;;;;;3.17;2.43;;;3.50;75.80;;;;;;5056592;28;20214;-69
2022/03/05 11:20:22;;;;;;;4.40;2.13;;;3.60;75.50;;;;;;5047730;28;20208;-68
2022/03/05 11:22:50;;;;;;;2.17;1.70;;;3.50;75.50;;;;;;5068515;28;20224;-67
2022/03/05 11:25:22;;;;;;;1.93;1.50;;;3.60;75.00;;;;;;5063384;28;20225;-67
2022/03/05 11:27:59;;;;;;;2.33;1.40;;;3.60;74.30;;;;;;5059579;28;20194;-68
2022/03/05 11:30:27;;;;;;;1.83;1.50;;;3.70;73.40;;;;;;5059613;28;20265;-67
2022/03/05 11:32:54;;;;;;;3.47;1.53;;;3.70;73.00;;;;;;5054490;28;20226;-68
2022/03/05 11:35:28;;;;;;;1.67;1.50;;;3.60;72.70;;;;;;5064854;28;20236;-67
2022/03/05 11:37:55;;;;;;;3.90;2.00;;;3.70;72.70;;;;;;5065996;28;20346;-68
2022/03/05 11:40:36;;;;;;;2.03;1.50;;;3.70;72.60;;;;;;5051561;28;20209;-69
2022/03/05 11:43:20;;;;;;;2.07;1.33;;;3.70;72.50;;;;;;5058646;28;20658;-68
2022/03/05 11:45:52;;;;;;;2.60;1.73;;;3.70;72.20;;;;;;5046701;28;20250;-69
2022/03/05 11:48:30;;;;;;;1.83;1.63;;;3.70;72.10;;;;;;5062847;28;20629;-70
2022/03/05 11:50:59;;;;;;;2.10;1.47;;;3.70;72.00;;;;;;5059930;28;20693;-67
2022/03/05 11:53:28;;;;;;;2.50;1.80;;;3.70;71.50;;;;;;5051503;28;20272;-68
2022/03/05 11:55:57;;;;;;;3.13;2.00;;;3.70;73.00;;;;;;5048646;28;20202;-68
2022/03/05 11:58:31;;;;;;;3.37;1.83;;;3.80;73.20;;;;;;5063011;28;20198;-67
2022/03/05 12:00:58;;;;;;;2.17;1.87;;;3.90;74.90;;;;;;5053720;28;20206;-69
2022/03/05 12:03:43;;;;;;;1.93;1.60;;;3.90;74.10;;;;;;5053794;28;20299;-69
2022/03/05 12:06:12;;;;;;;2.93;2.20;;;4.00;72.90;;;;;;5055541;28;20206;-73
2022/03/05 12:08:53;;;;;;;1.50;1.40;;;4.00;75.30;;;;;;5056287;28;20205;-76
2022/03/05 12:11:23;;;;;;;2.87;2.00;;;4.10;74.70;;;;;;5060248;28;20220;-73
2022/03/05 12:13:55;;;;;;;1.73;1.40;;;4.20;73.00;;;;;;5054170;28;20683;-71
2022/03/05 12:16:24;;;;;;;2.87;1.70;;;4.20;71.20;;;;;;5053516;28;20202;-71
2022/03/05 12:18:51;;;;;;;2.30;1.60;;;4.10;70.00;;;;;;5048798;28;20198;-70
2022/03/05 12:21:26;;;;;;;2.10;1.20;;;4.10;69.80;;;;;;5056780;28;20320;-73
2022/03/05 12:24:01;;;;;;;1.97;1.50;;;4.10;68.60;;;;;;5054588;28;20911;-71
2022/03/05 12:26:37;;;;;;;2.97;1.47;;;4.20;68.30;;;;;;5046537;28;20282;-71
2022/03/05 12:29:05;;;;;;;1.97;1.60;;;4.20;68.00;;;;;;5048748;28;20213;-71
2022/03/05 12:31:32;;;;;;;1.87;1.50;;;4.20;67.60;;;;;;5054356;28;20210;-72
2022/03/05 12:34:00;;;;;;;2.50;1.67;;;4.20;67.50;;;;;;5050954;28;20289;-71
2022/03/05 12:36:26;;;;;;;2.17;1.47;;;4.30;67.30;;;;;;5055832;28;20213;-73
2022/03/05 12:38:58;;;;;;;2.40;1.70;;;4.30;66.70;;;;;;5052041;28;20202;-74
2022/03/05 12:41:26;;;;;;;2.00;1.40;;;4.40;66.20;;;;;;5052297;28;20213;-71
2022/03/05 12:43:54;;;;;;;1.97;1.57;;;4.50;65.90;;;;;;5053706;28;20197;-74
2022/03/05 12:46:21;;;;;;;1.40;1.30;;;4.40;65.30;;;;;;5058341;28;20287;-74
2022/03/05 12:48:49;;;;;;;1.90;1.50;;;4.40;65.10;;;;;;5056842;28;20206;-71
2022/03/05 12:51:16;;;;;;;2.23;2.00;;;4.50;65.30;;;;;;5049050;28;20213;-75
2022/03/05 12:53:42;;;;;;;3.00;2.00;;;4.50;65.20;;;;;;5053710;28;20233;-69
2022/03/05 12:56:10;;;;;;;1.87;1.53;;;4.60;64.70;;;;;;5062454;28;20202;-71
2022/03/05 12:58:38;;;;;;;2.33;1.87;;;4.60;65.80;;;;;;5058549;28;20254;-71
2022/03/05 13:01:09;;;;;;;1.80;1.60;;;4.70;67.30;;;;;;5056118;28;20210;-72
2022/03/05 13:03:37;;;;;;;2.00;1.60;;;4.70;68.00;;;;;;5048663;28;20222;-71